Old Picacho, New Mexico
Current Conditions -  °F | °C
As of 6:35 PM on Wednesday 26 Nov 2014 (Local Time) from KLRU Reporting Station
Clear Clear  
Wind Chill: 45°   Ceiling: Unl
Heat Index: 48°   Visibility: 10mi
Dew Point: 16°   Wind: 7mph
Humidity: 27%   Direction: 300°WNW
Pressure: 30.31"   Gusts: NA
Location:  32.3074°N, 106.837°W
Report Text: KLRU 270135Z AUTO 30006KT 10SM CLR 09/M09 A3031 RMK AO2 T00911090
Loading
Personal Weather Stations






























Interactive Weather Map New forecast layout! Learn more

10-Day Weather Forecast

Advertisements
Track Severe Weather on mobile